Jankovina, Bosnia and Herzegovina

2:35 AM CET on December 13, 2019 (GMT +0100)
Sarajevo | | Change Station

Elev 1677 ft 43.82 °N, 18.33 °E | Updated 35 minutes ago

Overcast
Overcast
32 °F
Feels Like 32 °F
N
2
Wind Variable Wind from Variable

Today
High -- | Low -- °F
--% Chance of Precip.
Yesterday
High -- | Low -- °F
Precip. -- in
Pressure 29.50 in
Visibility 1.6 miles
Clouds Scattered Clouds 500 ft
Mostly Cloudy 1500 ft
Dew Point 32 °F
Humidity 100%
Rainfall 0.00 in
Snow Depth Not available.
7:11 AM 4:12 PM
Full, 99% visible
METAR LQSA 130100Z VRB02KT 2500 BR SCT005 BKN015 00/00 Q0999
Pressure 29.50 in
Visibility 1.6 miles
Clouds Scattered Clouds 500 ft
Mostly Cloudy 1500 ft
Dew Point 32 °F
Humidity 100%
Rainfall 0.00 in
Snow Depth Not available.
7:11 AM 4:12 PM
Full, 99% visible
METAR LQSA 130100Z VRB02KT 2500 BR SCT005 BKN015 00/00 Q0999

Get Severe Weather Alerts

Thanks for signing up!

Be on the lookout for a verification email in your inbox.

You'll start receiving the daily forecast at 6 AM.

×

10-Day Weather Forecast

No radar image for this location.
×

Almanac

Astronomy

Dec. 13, 2019 Rise Set
Actual Time
Civil Twilight
Nautical Twilight
Astronomical Twilight
Moon
Length of Visible Light
Length of Day
Tomorrow will be .
, % of the Moon is Illuminated

Today's Extremes

Country Highs Country Lows

Community

WunderPhotos

Category 6

Welcome to Category 6. This is the collective home for Weather Underground's featured writeups by Dr. Jeff Masters (right), Bob Henson (left), Chris Burt, and other regular contributors.

Nearby

Air Quality

  Air Quality AQ Index Pollutant
Not available.

Snow Depth

Station Depth Elevation

Earthquake Activity

City Distance Mag. Time & Date
Minimum magnitude displayed is 2.5.

Coastal Water Temperatures

Place Temperature

Stations

Nearby Weather Stations

Station Location Temp. Windchill Dew Point Humidity Wind Precip. Elev Updated Type